.
WxDataArchive / Data Records for 2007-11-23
2007-11-22 November 2007 2007-11-24

Data Records for Friday, 23 November 2007

Time	Temp	Chill	HIndex	Humid	Dewpt	 Wind 	HiWind	WindDir	Rain 	Barom 
-----	----	-----	------	-----	-----	------	------	-------	-----	----- 
00:00	31.9	31.9	31.9	90	29.3	0	1	225	0.00	30.255 
00:05	31.8	31.8	31.8	90	29.2	0	1	225	0.00	30.253 
00:10	31.9	31.9	31.9	90	29.3	0	1	225	0.00	30.253 
00:15	31.9	31.9	31.9	89	29.0	0	1	225	0.00	30.252 
00:20	31.9	31.9	31.9	89	29.0	0	1	225	0.00	30.251 
00:25	31.9	31.9	31.9	89	29.0	0	0	---	0.00	30.250 
00:30	32.1	32.1	32.1	89	29.2	0	1	225	0.00	30.250 
00:35	32.1	32.1	32.1	89	29.2	0	2	225	0.00	30.252 
00:40	31.8	31.8	31.8	87	28.4	0	2	315	0.00	30.252 
00:45	31.6	31.6	31.6	84	27.3	0	3	315	0.00	30.252 
00:50	31.6	31.6	31.6	82	26.7	0	2	315	0.00	30.252 
00:55	31.6	31.6	31.6	81	26.5	0	2	338	0.00	30.251 
01:00	31.6	31.6	31.6	81	26.5	0	2	338	0.00	30.251 
01:05	31.5	31.5	31.5	82	26.7	0	1	338	0.00	30.249 
01:10	31.5	31.5	31.5	84	27.2	0	1	338	0.00	30.249 
01:15	31.3	31.3	31.3	85	27.3	0	2	338	0.00	30.251 
01:20	31.0	31.0	31.0	87	27.6	0	1	338	0.00	30.250 
01:25	30.9	30.9	30.9	88	27.8	0	1	338	0.00	30.250 
01:30	30.6	30.6	30.6	88	27.5	0	1	338	0.00	30.250 
01:35	30.3	30.3	30.3	88	27.2	0	1	338	0.00	30.252 
01:40	30.1	30.1	30.1	87	26.7	0	2	338	0.00	30.251 
01:45	30.1	30.1	30.1	87	26.7	0	1	338	0.00	30.252 
01:50	30.0	30.0	30.0	86	26.3	0	1	338	0.00	30.251 
01:55	30.1	30.1	30.1	86	26.4	0	1	338	0.00	30.251 
02:00	30.1	30.1	30.1	85	26.1	0	1	338	0.00	30.252 
02:05	30.1	30.1	30.1	84	25.9	0	1	338	0.00	30.254 
02:10	30.1	30.1	30.1	83	25.6	0	1	338	0.00	30.254 
02:15	30.3	30.3	30.3	82	25.5	0	1	338	0.00	30.254 
02:20	30.3	30.3	30.3	81	25.2	0	1	338	0.00	30.255 
02:25	30.3	30.3	30.3	80	24.9	0	1	338	0.00	30.256 
02:30	30.3	30.3	30.3	79	24.6	0	1	338	0.00	30.258 
02:35	30.1	30.1	30.1	79	24.4	0	1	338	0.00	30.260 
02:40	30.1	30.1	30.1	79	24.4	0	1	338	0.00	30.261 
02:45	30.1	30.1	30.1	79	24.4	0	1	338	0.00	30.263 
02:50	30.1	30.1	30.1	79	24.4	0	0	---	0.00	30.265 
02:55	30.1	30.1	30.1	79	24.4	0	1	338	0.00	30.265 
03:00	30.1	30.1	30.1	79	24.4	0	1	338	0.00	30.268 
03:05	30.1	30.1	30.1	79	24.4	0	1	338	0.00	30.270 
03:10	30.1	30.1	30.1	79	24.4	0	0	---	0.00	30.271 
03:15	30.0	30.0	30.0	79	24.3	0	0	---	0.00	30.271 
03:20	30.0	30.0	30.0	79	24.3	0	0	---	0.00	30.272 
03:25	30.0	30.0	30.0	79	24.3	0	0	---	0.00	30.271 
03:30	30.0	30.0	30.0	79	24.3	0	0	---	0.00	30.271 
03:35	30.0	30.0	30.0	77	23.7	0	1	338	0.00	30.271 
03:40	30.0	30.0	30.0	76	23.4	0	0	---	0.00	30.273 
03:45	30.0	30.0	30.0	76	23.4	0	0	---	0.00	30.276 
03:50	30.0	30.0	30.0	76	23.4	0	0	---	0.00	30.277 
03:55	30.1	30.1	30.1	77	23.8	0	0	---	0.00	30.277 
04:00	30.1	30.1	30.1	77	23.8	0	1	338	0.00	30.277 
04:05	30.1	30.1	30.1	77	23.8	0	0	---	0.00	30.279 
04:10	30.1	30.1	30.1	78	24.1	0	0	---	0.00	30.278 
04:15	30.1	30.1	30.1	78	24.1	0	0	---	0.00	30.279 
04:20	30.1	30.1	30.1	79	24.4	0	0	---	0.00	30.278 
04:25	30.1	30.1	30.1	78	24.1	0	0	---	0.00	30.279 
04:30	30.1	30.1	30.1	78	24.1	0	0	---	0.00	30.279 
04:35	30.1	30.1	30.1	78	24.1	0	1	338	0.00	30.280 
04:40	30.1	30.1	30.1	77	23.8	0	0	---	0.00	30.282 
04:45	30.1	30.1	30.1	76	23.5	0	1	338	0.00	30.282 
04:50	30.3	30.3	30.3	77	24.0	0	0	---	0.00	30.286 
04:55	30.3	30.3	30.3	78	24.3	0	1	338	0.00	30.286 
05:00	30.3	30.3	30.3	78	24.3	0	1	338	0.00	30.288 
05:05	30.3	30.3	30.3	78	24.3	0	1	338	0.00	30.289 
05:10	30.3	30.3	30.3	78	24.3	0	1	338	0.00	30.292 
05:15	30.3	30.3	30.3	78	24.3	0	1	338	0.00	30.290 
05:20	30.1	30.1	30.1	78	24.1	0	1	338	0.00	30.291 
05:25	30.1	30.1	30.1	78	24.1	0	1	338	0.00	30.293 
05:30	30.1	30.1	30.1	79	24.4	0	1	338	0.00	30.295 
05:35	30.3	30.3	30.3	80	24.9	0	0	---	0.00	30.296 
05:40	30.3	30.3	30.3	80	24.9	0	1	338	0.00	30.297 
05:45	30.3	30.3	30.3	81	25.2	0	2	338	0.00	30.297 
05:50	30.1	30.1	30.1	81	25.0	0	1	338	0.00	30.297 
05:55	30.1	30.1	30.1	81	25.0	0	1	338	0.00	30.297 
06:00	30.0	30.0	30.0	81	24.9	0	1	338	0.00	30.297 
06:05	30.0	30.0	30.0	81	24.9	0	1	338	0.00	30.299 
06:10	30.0	30.0	30.0	81	24.9	0	2	338	0.00	30.300 
06:15	30.0	30.0	30.0	82	25.2	0	1	338	0.00	30.300 
06:20	30.0	30.0	30.0	82	25.2	0	2	338	0.00	30.299 
06:25	30.0	30.0	30.0	83	25.5	0	1	338	0.00	30.301 
06:30	30.0	30.0	30.0	83	25.5	0	1	338	0.00	30.303 
06:35	30.0	30.0	30.0	83	25.5	0	0	---	0.00	30.305 
06:40	29.8	29.8	29.8	84	25.6	0	0	---	0.00	30.307 
06:45	29.8	29.8	29.8	84	25.6	0	1	248	0.00	30.311 
06:50	29.7	29.7	29.7	84	25.5	0	1	248	0.00	30.312 
06:55	29.5	29.5	29.5	84	25.3	0	1	248	0.00	30.313 
07:00	29.5	29.5	29.5	84	25.3	0	1	248	0.00	30.314 
07:05	29.4	29.4	29.4	84	25.2	0	1	270	0.00	30.318 
07:10	29.3	29.3	29.3	84	25.1	0	2	270	0.00	30.321 
07:15	29.3	29.3	29.3	84	25.1	0	1	270	0.00	30.323 
07:20	29.1	29.1	29.1	84	24.9	0	1	270	0.00	30.327 
07:25	29.0	29.0	29.0	84	24.8	0	1	270	0.00	30.327 
07:30	28.8	28.8	28.8	85	24.9	0	1	270	0.00	30.331 
07:35	28.8	28.8	28.8	85	24.9	0	1	270	0.00	30.333 
07:40	28.8	28.8	28.8	85	24.9	0	1	270	0.00	30.334 
07:45	28.7	28.7	28.7	85	24.8	0	1	270	0.00	30.334 
07:50	28.7	28.7	28.7	86	25.1	0	1	270	0.00	30.333 
07:55	28.7	28.7	28.7	86	25.1	0	1	270	0.00	30.335 
08:00	28.7	28.7	28.7	86	25.1	0	1	270	0.00	30.335 
08:05	28.7	28.7	28.7	86	25.1	0	1	270	0.00	30.334 
08:10	28.7	28.7	28.7	85	24.8	0	1	270	0.00	30.333 
08:15	28.7	28.7	28.7	85	24.8	0	0	---	0.00	30.337 
08:20	28.8	28.8	28.8	85	24.9	0	0	---	0.00	30.339 
08:25	28.7	28.7	28.7	85	24.8	0	1	270	0.00	30.339 
08:30	28.7	28.7	28.7	84	24.5	0	1	270	0.00	30.339 
08:35	28.8	28.8	28.8	84	24.6	0	1	270	0.00	30.342 
08:40	29.0	29.0	29.0	84	24.8	0	1	270	0.00	30.344 
08:45	29.3	29.3	29.3	84	25.1	0	1	270	0.00	30.345 
08:50	29.5	29.5	29.5	83	25.0	0	1	270	0.00	30.347 
08:55	29.7	29.7	29.7	83	25.2	0	2	270	0.00	30.348 
09:00	30.0	30.0	30.0	82	25.2	0	1	270	0.00	30.351 
09:05	30.3	30.3	30.3	81	25.2	0	1	270	0.00	30.350 
09:10	30.3	30.3	30.3	79	24.6	1	2	0	0.00	30.350 
09:15	30.4	30.4	30.4	77	24.1	1	3	0	0.00	30.353 
09:20	30.7	30.7	30.7	76	24.0	1	3	0	0.00	30.358 
09:25	30.9	30.9	30.9	74	23.6	1	2	338	0.00	30.359 
09:30	31.0	31.0	31.0	75	24.0	0	3	270	0.00	30.359 
09:35	31.0	31.0	31.0	74	23.7	1	3	270	0.00	30.358 
09:40	31.2	31.2	31.2	73	23.6	0	1	270	0.00	30.359 
09:45	31.3	31.3	31.3	71	23.0	1	2	315	0.00	30.360 
09:50	31.5	31.5	31.5	70	22.9	1	2	338	0.00	30.360 
09:55	31.6	31.6	31.6	71	23.3	0	2	270	0.00	30.358 
10:00	31.8	31.8	31.8	69	22.8	0	1	270	0.00	30.358 
10:05	32.1	32.1	32.1	69	23.1	0	2	338	0.00	30.361 
10:10	32.4	32.4	32.4	68	23.0	0	2	338	0.00	30.361 
10:15	32.5	32.5	32.5	68	23.1	1	3	338	0.00	30.362 
10:20	32.5	32.5	32.5	67	22.8	1	3	315	0.00	30.363 
10:25	32.8	32.8	32.8	69	23.8	1	2	248	0.00	30.364 
10:30	32.9	32.9	32.9	67	23.2	1	2	315	0.00	30.372 
10:35	33.1	33.1	33.1	67	23.4	1	2	315	0.00	30.372 
10:40	33.4	33.4	33.4	65	22.9	1	2	315	0.00	30.376 
10:45	33.4	33.4	33.4	65	22.9	0	2	315	0.00	30.374 
10:50	33.5	33.5	33.5	65	23.0	0	2	315	0.00	30.374 
10:55	33.7	33.7	33.7	66	23.6	0	2	315	0.00	30.373 
11:00	33.7	33.7	33.7	63	22.5	1	3	315	0.00	30.374 
11:05	34.0	34.0	34.0	63	22.7	1	4	315	0.00	30.373 
11:10	34.3	34.3	34.3	61	22.3	1	4	0	0.00	30.374 
11:15	34.3	34.3	34.3	62	22.7	1	2	0	0.00	30.374 
11:20	34.4	34.4	34.4	64	23.5	1	3	0	0.00	30.375 
11:25	34.0	34.0	34.0	63	22.7	0	2	292	0.00	30.373 
11:30	33.8	33.8	33.8	62	22.2	0	2	315	0.00	30.370 
11:35	33.7	33.7	33.7	62	22.1	0	2	315	0.00	30.367 
11:40	33.8	33.8	33.8	62	22.2	0	2	338	0.00	30.369 
11:45	34.3	34.3	34.3	63	23.0	0	2	338	0.00	30.370 
11:50	34.1	34.1	34.1	62	22.5	0	1	338	0.00	30.370 
11:55	34.0	34.0	34.0	62	22.4	0	1	338	0.00	30.367 
12:00	33.8	33.8	33.8	62	22.2	0	1	338	0.00	30.368 
12:05	33.7	33.7	33.7	62	22.1	0	1	338	0.00	30.363 
12:10	34.3	34.3	34.3	62	22.7	1	3	248	0.00	30.360 
12:15	34.3	34.3	34.3	60	21.9	1	3	248	0.00	30.359 
12:20	34.6	34.6	34.6	62	22.9	1	3	270	0.00	30.360 
12:25	34.9	34.9	34.9	61	22.8	1	4	248	0.00	30.359 
12:30	35.2	35.2	35.2	60	22.7	1	4	248	0.00	30.357 
12:35	35.3	35.3	35.3	58	22.0	1	4	270	0.00	30.356 
12:40	35.2	35.2	35.2	58	21.9	1	6	248	0.00	30.356 
12:45	36.0	36.0	36.0	60	23.5	2	7	270	0.00	30.351 
12:50	36.6	36.6	36.6	58	23.2	1	5	248	0.00	30.354 
12:55	36.8	36.8	36.8	60	24.2	1	4	270	0.00	30.352 
13:00	36.9	36.9	36.9	58	23.5	2	5	248	0.00	30.351 
13:05	36.9	36.9	36.9	58	23.5	1	3	248	0.00	30.347 
13:10	37.0	37.0	37.0	57	23.2	2	9	248	0.00	30.346 
13:15	36.9	36.9	36.9	58	23.5	2	7	248	0.00	30.346 
13:20	36.2	36.2	36.2	58	22.9	2	4	270	0.00	30.345 
13:25	35.5	35.5	35.5	58	22.2	1	6	270	0.00	30.344 
13:30	35.2	35.2	35.2	62	23.5	1	3	248	0.00	30.347 
13:35	34.4	34.4	34.4	65	23.9	1	3	338	0.00	30.348 
13:40	34.3	34.3	34.3	65	23.8	1	3	0	0.00	30.346 
13:45	34.1	34.1	34.1	65	23.6	1	2	0	0.00	30.346 
13:50	34.3	34.3	34.3	66	24.1	0	2	248	0.00	30.345 
13:55	33.8	33.8	33.8	67	24.0	1	2	315	0.00	30.344 
14:00	33.5	33.5	33.5	66	23.4	0	2	315	0.00	30.343 
14:05	33.5	33.5	33.5	65	23.0	0	2	315	0.00	30.343 
14:10	33.7	33.7	33.7	62	22.1	1	4	248	0.00	30.344 
14:15	33.7	33.7	33.7	59	20.9	0	1	248	0.00	30.345 
14:20	33.7	33.7	33.7	59	20.9	0	2	270	0.00	30.345 
14:25	33.7	33.7	33.7	58	20.5	0	1	270	0.00	30.345 
14:30	33.7	33.7	33.7	60	21.3	0	1	270	0.00	30.345 
14:35	33.7	33.7	33.7	59	20.9	0	1	270	0.00	30.345 
14:40	33.8	33.8	33.8	61	21.8	0	2	292	0.00	30.345 
14:45	34.1	34.1	34.1	62	22.5	1	3	248	0.00	30.345 
14:50	34.1	34.1	34.1	61	22.1	1	3	248	0.00	30.345 
14:55	34.1	34.1	34.1	60	21.7	1	3	0	0.00	30.344 
15:00	34.1	34.1	34.1	60	21.7	1	3	270	0.00	30.344 
15:05	34.4	34.4	34.4	61	22.4	2	4	270	0.00	30.344 
15:10	35.5	35.5	35.5	59	22.6	3	9	270	0.00	30.345 
15:15	35.0	35.0	35.0	62	23.3	2	5	270	0.00	30.346 
15:20	34.4	34.4	34.4	63	23.1	2	5	248	0.00	30.350 
15:25	34.4	34.4	34.4	63	23.1	1	3	248	0.00	30.351 
15:30	34.6	34.6	34.6	62	22.9	1	4	248	0.00	30.352 
15:35	34.3	34.3	34.3	63	23.0	0	2	292	0.00	30.353 
15:40	34.3	34.3	34.3	64	23.4	0	2	248	0.00	30.354 
15:45	34.0	34.0	34.0	64	23.1	0	1	248	0.00	30.354 
15:50	33.7	33.7	33.7	65	23.2	0	1	248	0.00	30.353 
15:55	33.4	33.4	33.4	66	23.3	0	3	270	0.00	30.358 
16:00	33.1	33.1	33.1	66	23.0	0	1	270	0.00	30.358 
16:05	33.1	33.1	33.1	66	23.0	0	2	270	0.00	30.357 
16:10	33.2	33.2	33.2	65	22.7	0	2	270	0.00	30.356 
16:15	33.5	33.5	33.5	64	22.6	0	2	248	0.00	30.354 
16:20	33.5	33.5	33.5	62	21.9	0	2	248	0.00	30.352 
16:25	33.4	33.4	33.4	61	21.4	0	1	292	0.00	30.352 
16:30	33.2	33.2	33.2	60	20.8	0	2	270	0.00	30.356 
16:35	33.4	33.4	33.4	62	21.8	0	3	270	0.00	30.358 
16:40	33.4	33.4	33.4	62	21.8	0	2	248	0.00	30.357 
16:45	33.1	33.1	33.1	64	22.3	0	1	248	0.00	30.353 
16:50	32.9	32.9	32.9	65	22.4	0	3	315	0.00	30.355 
16:55	32.8	32.8	32.8	66	22.7	0	2	338	0.00	30.354 
17:00	32.8	32.8	32.8	68	23.4	0	1	338	0.00	30.352 
17:05	32.7	32.7	32.7	68	23.3	0	1	338	0.00	30.352 
17:10	32.4	32.4	32.4	67	22.7	0	1	338	0.00	30.352 
17:15	32.1	32.1	32.1	68	22.7	0	0	---	0.00	30.353 
17:20	31.8	31.8	31.8	68	22.5	0	0	---	0.00	30.351 
17:25	31.5	31.5	31.5	69	22.5	0	0	---	0.00	30.349 
17:30	31.2	31.2	31.2	69	22.2	0	0	---	0.00	30.350 
17:35	30.9	30.9	30.9	69	21.9	0	0	---	0.00	30.349 
17:40	30.6	30.6	30.6	70	22.0	0	0	---	0.00	30.349 
17:45	30.3	30.3	30.3	71	22.0	0	0	---	0.00	30.349 
17:50	29.8	29.8	29.8	72	21.9	0	0	---	0.00	30.350 
17:55	29.5	29.5	29.5	73	21.9	0	0	---	0.00	30.351 
18:00	29.4	29.4	29.4	74	22.2	0	0	---	0.00	30.353 
18:05	29.1	29.1	29.1	75	22.2	0	0	---	0.00	30.354 
18:10	29.0	29.0	29.0	76	22.4	0	0	---	0.00	30.356 
18:15	28.7	28.7	28.7	77	22.4	0	0	---	0.00	30.356 
18:20	28.4	28.4	28.4	77	22.1	0	0	---	0.00	30.355 
18:25	28.1	28.1	28.1	77	21.8	0	0	---	0.00	30.354 
18:30	27.8	27.8	27.8	77	21.5	0	0	---	0.00	30.352 
18:35	27.6	27.6	27.6	78	21.7	0	0	---	0.00	30.356 
18:40	27.3	27.3	27.3	79	21.7	0	0	---	0.00	30.360 
18:45	27.2	27.2	27.2	80	21.9	0	0	---	0.00	30.362 
18:50	27.0	27.0	27.0	80	21.7	0	0	---	0.00	30.363 
18:55	27.0	27.0	27.0	80	21.7	0	0	---	0.00	30.363 
19:00	26.9	26.9	26.9	80	21.6	0	0	---	0.00	30.363 
19:05	26.7	26.7	26.7	81	21.7	0	0	---	0.00	30.367 
19:10	26.7	26.7	26.7	81	21.7	0	0	---	0.00	30.366 
19:15	26.7	26.7	26.7	82	22.0	0	0	---	0.00	30.366 
19:20	26.7	26.7	26.7	83	22.2	0	0	---	0.00	30.367 
19:25	26.9	26.9	26.9	83	22.4	0	0	---	0.00	30.367 
19:30	27.3	27.3	27.3	83	22.8	0	1	338	0.00	30.368 
19:35	28.1	28.1	28.1	82	23.3	0	0	---	0.00	30.371 
19:40	28.4	28.4	28.4	80	23.0	0	1	338	0.00	30.370 
19:45	28.8	28.8	28.8	78	22.8	0	0	---	0.00	30.372 
19:50	29.1	29.1	29.1	76	22.5	0	1	338	0.00	30.373 
19:55	29.5	29.5	29.5	74	22.3	0	1	338	0.00	30.371 
20:00	29.8	29.8	29.8	72	21.9	0	1	338	0.00	30.369 
20:05	30.1	30.1	30.1	70	21.5	0	1	338	0.00	30.366 
20:10	30.4	30.4	30.4	69	21.5	0	2	270	0.00	30.367 
20:15	30.9	30.9	30.9	68	21.6	1	5	248	0.00	30.368 
20:20	31.0	31.0	31.0	67	21.3	1	3	248	0.00	30.369 
20:25	31.0	31.0	31.0	67	21.3	1	4	248	0.00	30.368 
20:30	31.0	31.0	31.0	67	21.3	1	4	248	0.00	30.371 
20:35	30.9	30.9	30.9	67	21.3	1	7	248	0.00	30.372 
20:40	30.7	30.7	30.7	67	21.1	1	3	248	0.00	30.373 
20:45	30.6	30.6	30.6	68	21.3	0	3	248	0.00	30.373 
20:50	30.3	30.3	30.3	68	21.0	0	2	248	0.00	30.372 
20:55	30.1	30.1	30.1	69	21.2	0	4	248	0.00	30.373 
21:00	30.1	30.1	30.1	69	21.2	0	2	248	0.00	30.374 
21:05	29.8	29.8	29.8	70	21.2	0	1	248	0.00	30.373 
21:10	29.7	29.7	29.7	70	21.1	0	1	248	0.00	30.370 
21:15	29.5	29.5	29.5	70	20.9	1	3	248	0.00	30.368 
21:20	29.4	29.4	29.4	71	21.2	0	1	248	0.00	30.368 
21:25	29.3	29.3	29.3	71	21.1	0	1	248	0.00	30.369 
21:30	29.1	29.1	29.1	72	21.2	0	1	248	0.00	30.370 
21:35	29.0	29.0	29.0	72	21.1	0	1	248	0.00	30.370 
21:40	28.8	28.8	28.8	72	20.9	0	1	248	0.00	30.371 
21:45	28.7	28.7	28.7	72	20.8	0	1	248	0.00	30.371 
21:50	28.5	28.5	28.5	72	20.6	0	1	248	0.00	30.368 
21:55	28.4	28.4	28.4	72	20.5	0	1	248	0.00	30.368 
22:00	28.4	28.4	28.4	72	20.5	0	2	248	0.00	30.368 
22:05	28.1	28.1	28.1	72	20.3	0	1	248	0.00	30.371 
22:10	27.9	27.9	27.9	72	20.1	0	1	248	0.00	30.374 
22:15	27.8	27.8	27.8	73	20.3	0	1	248	0.00	30.374 
22:20	27.6	27.6	27.6	73	20.1	0	1	248	0.00	30.377 
22:25	27.6	27.6	27.6	73	20.1	0	1	248	0.00	30.375 
22:30	27.5	27.5	27.5	73	20.0	0	1	248	0.00	30.374 
22:35	27.3	27.3	27.3	74	20.1	0	0	---	0.00	30.371 
22:40	27.2	27.2	27.2	74	20.0	0	0	---	0.00	30.369 
22:45	27.0	27.0	27.0	74	19.8	0	1	248	0.00	30.368 
22:50	27.0	27.0	27.0	75	20.2	0	0	---	0.00	30.369 
22:55	26.9	26.9	26.9	75	20.1	0	0	---	0.00	30.368 
23:00	26.7	26.7	26.7	75	19.9	0	0	---	0.00	30.371 
23:05	26.6	26.6	26.6	76	20.1	0	0	---	0.00	30.371 
23:10	26.4	26.4	26.4	76	19.9	0	0	---	0.00	30.371 
23:15	26.3	26.3	26.3	76	19.8	0	0	---	0.00	30.368 
23:20	26.0	26.0	26.0	76	19.5	0	0	---	0.00	30.364 
23:25	25.8	25.8	25.8	77	19.6	0	0	---	0.00	30.363 
23:30	25.6	25.6	25.6	77	19.4	0	0	---	0.00	30.364 
23:35	25.4	25.4	25.4	78	19.5	0	0	---	0.00	30.366 
23:40	25.3	25.3	25.3	79	19.7	0	0	---	0.00	30.367 
23:45	25.1	25.1	25.1	80	19.8	0	0	---	0.00	30.369 
23:50	25.0	25.0	25.0	80	19.7	0	0	---	0.00	30.375 
23:55	25.0	25.0	25.0	81	20.0	0	0	---	0.00	30.373 

CoCoRaHS
IN-AL-39
A2 Web Hosting
Creative Commons License
GoDaddy
Look for:

loaded 2017-10-17 00:33:14 • last modified 2010-11-18 10:43:29
Privacy PolicyDisclaimer
• wx.awcolley.com is powered by PmWiki v.2002016 •
• all content (unless otherwise noted) © 2017 A W Colley